sensor_id;sensor_type;location;lat;lon;timestamp;P1;durP1;ratioP1;P2;durP2;ratioP2
67558;SDS011;54388;53.536;49.300;2023-05-15T00:01:03;7.75;;;4.10;;
67558;SDS011;54388;53.536;49.300;2023-05-15T00:03:29;6.35;;;3.67;;
67558;SDS011;54388;53.536;49.300;2023-05-15T00:05:55;9.95;;;4.07;;
67558;SDS011;54388;53.536;49.300;2023-05-15T00:08:22;6.43;;;3.45;;
67558;SDS011;54388;53.536;49.300;2023-05-15T00:10:49;10.32;;;4.50;;
67558;SDS011;54388;53.536;49.300;2023-05-15T00:13:16;10.18;;;4.32;;
67558;SDS011;54388;53.536;49.300;2023-05-15T00:15:43;11.05;;;4.78;;
67558;SDS011;54388;53.536;49.300;2023-05-15T00:18:09;8.90;;;4.43;;
67558;SDS011;54388;53.536;49.300;2023-05-15T00:20:36;9.57;;;4.50;;
67558;SDS011;54388;53.536;49.300;2023-05-15T00:23:02;9.60;;;4.57;;
67558;SDS011;54388;53.536;49.300;2023-05-15T00:25:29;7.97;;;3.83;;
67558;SDS011;54388;53.536;49.300;2023-05-15T00:27:56;6.45;;;3.85;;
67558;SDS011;54388;53.536;49.300;2023-05-15T00:30:22;7.07;;;3.70;;
67558;SDS011;54388;53.536;49.300;2023-05-15T00:32:48;6.82;;;3.53;;
67558;SDS011;54388;53.536;49.300;2023-05-15T00:35:15;6.43;;;3.00;;
67558;SDS011;54388;53.536;49.300;2023-05-15T00:37:42;8.45;;;3.58;;
67558;SDS011;54388;53.536;49.300;2023-05-15T00:40:08;6.97;;;4.10;;
67558;SDS011;54388;53.536;49.300;2023-05-15T00:42:37;11.00;;;4.13;;
67558;SDS011;54388;53.536;49.300;2023-05-15T00:45:04;8.70;;;3.80;;
67558;SDS011;54388;53.536;49.300;2023-05-15T00:47:32;6.55;;;3.50;;
67558;SDS011;54388;53.536;49.300;2023-05-15T00:49:59;8.10;;;3.88;;
67558;SDS011;54388;53.536;49.300;2023-05-15T00:52:26;7.32;;;3.88;;
67558;SDS011;54388;53.536;49.300;2023-05-15T00:54:54;9.68;;;3.67;;
67558;SDS011;54388;53.536;49.300;2023-05-15T00:57:20;8.57;;;3.78;;
67558;SDS011;54388;53.536;49.300;2023-05-15T00:59:48;9.93;;;4.45;;
67558;SDS011;54388;53.536;49.300;2023-05-15T01:02:17;7.65;;;3.22;;
67558;SDS011;54388;53.536;49.300;2023-05-15T01:04:44;8.23;;;3.88;;
67558;SDS011;54388;53.536;49.300;2023-05-15T01:07:11;6.38;;;3.60;;
67558;SDS011;54388;53.536;49.300;2023-05-15T01:09:39;7.22;;;3.60;;
67558;SDS011;54388;53.536;49.300;2023-05-15T01:12:08;6.03;;;3.53;;
67558;SDS011;54388;53.536;49.300;2023-05-15T01:14:36;10.90;;;4.25;;
67558;SDS011;54388;53.536;49.300;2023-05-15T01:17:02;6.63;;;4.18;;
67558;SDS011;54388;53.536;49.300;2023-05-15T01:19:29;9.10;;;4.47;;
67558;SDS011;54388;53.536;49.300;2023-05-15T01:38:36;6.28;;;3.30;;
67558;SDS011;54388;53.536;49.300;2023-05-15T01:41:08;8.63;;;3.50;;
67558;SDS011;54388;53.536;49.300;2023-05-15T01:43:41;8.95;;;3.20;;
67558;SDS011;54388;53.536;49.300;2023-05-15T01:46:13;12.23;;;8.30;;
67558;SDS011;54388;53.536;49.300;2023-05-15T01:48:44;6.10;;;3.55;;
67558;SDS011;54388;53.536;49.300;2023-05-15T01:51:12;8.75;;;3.25;;
67558;SDS011;54388;53.536;49.300;2023-05-15T01:53:41;8.82;;;3.78;;
67558;SDS011;54388;53.536;49.300;2023-05-15T01:56:11;6.70;;;3.60;;
67558;SDS011;54388;53.536;49.300;2023-05-15T01:58:39;15.38;;;4.90;;
67558;SDS011;54388;53.536;49.300;2023-05-15T02:01:07;11.38;;;3.72;;
67558;SDS011;54388;53.536;49.300;2023-05-15T02:03:35;7.35;;;3.38;;
67558;SDS011;54388;53.536;49.300;2023-05-15T02:06:02;7.20;;;3.45;;
67558;SDS011;54388;53.536;49.300;2023-05-15T02:08:33;10.18;;;4.00;;
67558;SDS011;54388;53.536;49.300;2023-05-15T02:11:00;7.55;;;3.75;;
67558;SDS011;54388;53.536;49.300;2023-05-15T02:13:28;12.18;;;4.30;;
67558;SDS011;54388;53.536;49.300;2023-05-15T02:15:56;5.85;;;3.35;;
67558;SDS011;54388;53.536;49.300;2023-05-15T02:18:23;16.45;;;3.88;;
67558;SDS011;54388;53.536;49.300;2023-05-15T02:20:49;10.98;;;4.18;;
67558;SDS011;54388;53.536;49.300;2023-05-15T02:23:16;5.72;;;3.50;;
67558;SDS011;54388;53.536;49.300;2023-05-15T02:28:33;8.65;;;3.50;;
67558;SDS011;54388;53.536;49.300;2023-05-15T02:31:16;5.72;;;3.30;;
67558;SDS011;54388;53.536;49.300;2023-05-15T02:33:57;9.07;;;3.65;;
67558;SDS011;54388;53.536;49.300;2023-05-15T02:36:33;7.15;;;3.80;;
67558;SDS011;54388;53.536;49.300;2023-05-15T02:39:05;19.55;;;3.85;;
67558;SDS011;54388;53.536;49.300;2023-05-15T02:41:32;14.70;;;3.97;;
67558;SDS011;54388;53.536;49.300;2023-05-15T02:44:02;10.45;;;3.30;;
67558;SDS011;54388;53.536;49.300;2023-05-15T02:46:30;8.57;;;3.10;;
67558;SDS011;54388;53.536;49.300;2023-05-15T02:48:57;6.50;;;3.05;;
67558;SDS011;54388;53.536;49.300;2023-05-15T02:51:26;16.63;;;3.50;;
67558;SDS011;54388;53.536;49.300;2023-05-15T02:53:52;10.90;;;3.08;;
67558;SDS011;54388;53.536;49.300;2023-05-15T02:56:20;7.13;;;2.40;;
67558;SDS011;54388;53.536;49.300;2023-05-15T02:58:47;6.22;;;2.50;;
67558;SDS011;54388;53.536;49.300;2023-05-15T03:01:14;8.30;;;2.80;;
67558;SDS011;54388;53.536;49.300;2023-05-15T03:03:41;6.53;;;2.50;;
67558;SDS011;54388;53.536;49.300;2023-05-15T03:06:07;14.35;;;2.67;;
67558;SDS011;54388;53.536;49.300;2023-05-15T03:08:34;5.55;;;2.10;;
67558;SDS011;54388;53.536;49.300;2023-05-15T03:11:01;2.88;;;1.65;;
67558;SDS011;54388;53.536;49.300;2023-05-15T03:13:28;20.48;;;3.25;;
67558;SDS011;54388;53.536;49.300;2023-05-15T03:15:54;6.80;;;1.75;;
67558;SDS011;54388;53.536;49.300;2023-05-15T03:18:21;3.20;;;1.63;;
67558;SDS011;54388;53.536;49.300;2023-05-15T03:20:48;7.72;;;2.05;;
67558;SDS011;54388;53.536;49.300;2023-05-15T03:23:17;8.98;;;2.05;;
67558;SDS011;54388;53.536;49.300;2023-05-15T03:25:44;6.45;;;1.83;;
67558;SDS011;54388;53.536;49.300;2023-05-15T03:28:11;10.18;;;1.85;;
67558;SDS011;54388;53.536;49.300;2023-05-15T03:30:37;6.35;;;1.60;;
67558;SDS011;54388;53.536;49.300;2023-05-15T03:33:04;5.68;;;1.60;;
67558;SDS011;54388;53.536;49.300;2023-05-15T03:35:31;4.90;;;1.40;;
67558;SDS011;54388;53.536;49.300;2023-05-15T03:37:57;18.48;;;2.60;;
67558;SDS011;54388;53.536;49.300;2023-05-15T03:40:23;9.68;;;1.40;;
67558;SDS011;54388;53.536;49.300;2023-05-15T03:42:50;8.43;;;1.10;;
67558;SDS011;54388;53.536;49.300;2023-05-15T03:45:18;3.88;;;1.20;;
67558;SDS011;54388;53.536;49.300;2023-05-15T03:47:45;6.57;;;1.20;;
67558;SDS011;54388;53.536;49.300;2023-05-15T03:50:12;4.65;;;1.25;;
67558;SDS011;54388;53.536;49.300;2023-05-15T03:52:39;15.43;;;2.05;;
67558;SDS011;54388;53.536;49.300;2023-05-15T03:55:06;10.70;;;1.50;;
67558;SDS011;54388;53.536;49.300;2023-05-15T03:57:32;4.15;;;1.33;;
67558;SDS011;54388;53.536;49.300;2023-05-15T04:00:00;3.50;;;1.23;;
67558;SDS011;54388;53.536;49.300;2023-05-15T04:02:34;4.70;;;1.20;;
67558;SDS011;54388;53.536;49.300;2023-05-15T04:05:02;8.52;;;1.10;;
67558;SDS011;54388;53.536;49.300;2023-05-15T04:07:31;7.22;;;1.30;;
67558;SDS011;54388;53.536;49.300;2023-05-15T04:09:58;8.65;;;1.40;;
67558;SDS011;54388;53.536;49.300;2023-05-15T04:12:28;2.10;;;1.02;;
67558;SDS011;54388;53.536;49.300;2023-05-15T04:18:01;4.95;;;1.30;;
67558;SDS011;54388;53.536;49.300;2023-05-15T04:20:28;8.35;;;1.98;;
67558;SDS011;54388;53.536;49.300;2023-05-15T04:22:54;14.20;;;2.47;;
67558;SDS011;54388;53.536;49.300;2023-05-15T04:25:21;10.50;;;1.67;;
67558;SDS011;54388;53.536;49.300;2023-05-15T04:27:48;10.77;;;1.67;;
67558;SDS011;54388;53.536;49.300;2023-05-15T04:30:15;3.05;;;1.27;;
67558;SDS011;54388;53.536;49.300;2023-05-15T04:32:42;6.65;;;1.13;;
67558;SDS011;54388;53.536;49.300;2023-05-15T04:35:08;24.90;;;2.95;;
67558;SDS011;54388;53.536;49.300;2023-05-15T04:37:37;6.25;;;1.20;;
67558;SDS011;54388;53.536;49.300;2023-05-15T04:40:07;6.28;;;1.20;;
67558;SDS011;54388;53.536;49.300;2023-05-15T04:42:34;2.17;;;0.90;;
67558;SDS011;54388;53.536;49.300;2023-05-15T04:45:02;4.30;;;0.98;;
67558;SDS011;54388;53.536;49.300;2023-05-15T04:47:28;6.78;;;1.00;;
67558;SDS011;54388;53.536;49.300;2023-05-15T04:49:55;9.25;;;1.77;;
67558;SDS011;54388;53.536;49.300;2023-05-15T04:52:21;5.97;;;1.45;;
67558;SDS011;54388;53.536;49.300;2023-05-15T04:54:48;5.47;;;0.75;;
67558;SDS011;54388;53.536;49.300;2023-05-15T04:57:15;32.50;;;4.82;;
67558;SDS011;54388;53.536;49.300;2023-05-15T04:59:43;6.63;;;1.08;;
67558;SDS011;54388;53.536;49.300;2023-05-15T05:02:09;13.93;;;2.03;;
67558;SDS011;54388;53.536;49.300;2023-05-15T05:04:36;16.10;;;1.50;;
67558;SDS011;54388;53.536;49.300;2023-05-15T05:07:03;2.95;;;1.13;;
67558;SDS011;54388;53.536;49.300;2023-05-15T05:09:30;10.23;;;1.30;;
67558;SDS011;54388;53.536;49.300;2023-05-15T05:11:59;12.95;;;1.30;;
67558;SDS011;54388;53.536;49.300;2023-05-15T05:14:29;7.78;;;1.08;;
67558;SDS011;54388;53.536;49.300;2023-05-15T05:16:56;6.10;;;0.90;;
67558;SDS011;54388;53.536;49.300;2023-05-15T05:19:22;2.50;;;0.70;;
67558;SDS011;54388;53.536;49.300;2023-05-15T05:21:49;2.08;;;0.80;;
67558;SDS011;54388;53.536;49.300;2023-05-15T05:24:16;14.65;;;1.48;;
67558;SDS011;54388;53.536;49.300;2023-05-15T05:26:42;4.85;;;0.95;;
67558;SDS011;54388;53.536;49.300;2023-05-15T05:29:09;8.38;;;1.23;;
67558;SDS011;54388;53.536;49.300;2023-05-15T05:31:36;9.80;;;1.10;;
67558;SDS011;54388;53.536;49.300;2023-05-15T05:34:03;5.88;;;0.80;;
67558;SDS011;54388;53.536;49.300;2023-05-15T05:36:29;10.32;;;1.40;;
67558;SDS011;54388;53.536;49.300;2023-05-15T05:38:56;3.10;;;0.93;;
67558;SDS011;54388;53.536;49.300;2023-05-15T05:41:22;15.25;;;1.73;;
67558;SDS011;54388;53.536;49.300;2023-05-15T05:43:49;5.03;;;0.90;;
67558;SDS011;54388;53.536;49.300;2023-05-15T05:46:15;10.93;;;2.00;;
67558;SDS011;54388;53.536;49.300;2023-05-15T05:48:41;7.93;;;1.30;;
67558;SDS011;54388;53.536;49.300;2023-05-15T05:51:08;6.72;;;1.30;;
67558;SDS011;54388;53.536;49.300;2023-05-15T05:53:34;8.38;;;1.30;;
67558;SDS011;54388;53.536;49.300;2023-05-15T05:56:01;8.10;;;1.13;;
67558;SDS011;54388;53.536;49.300;2023-05-15T05:58:27;3.63;;;0.60;;
67558;SDS011;54388;53.536;49.300;2023-05-15T06:00:54;9.43;;;1.20;;
67558;SDS011;54388;53.536;49.300;2023-05-15T06:03:21;2.75;;;0.95;;
67558;SDS011;54388;53.536;49.300;2023-05-15T06:05:47;6.45;;;1.08;;
67558;SDS011;54388;53.536;49.300;2023-05-15T06:08:14;8.20;;;1.08;;
67558;SDS011;54388;53.536;49.300;2023-05-15T06:10:41;0.70;;;0.40;;
67558;SDS011;54388;53.536;49.300;2023-05-15T06:13:07;6.90;;;1.30;;
67558;SDS011;54388;53.536;49.300;2023-05-15T06:15:34;9.02;;;1.40;;
67558;SDS011;54388;53.536;49.300;2023-05-15T06:18:00;6.88;;;1.10;;
67558;SDS011;54388;53.536;49.300;2023-05-15T06:20:27;9.30;;;1.20;;
67558;SDS011;54388;53.536;49.300;2023-05-15T06:22:53;3.13;;;0.80;;
67558;SDS011;54388;53.536;49.300;2023-05-15T06:25:20;8.65;;;1.45;;
67558;SDS011;54388;53.536;49.300;2023-05-15T06:27:47;9.25;;;1.10;;
67558;SDS011;54388;53.536;49.300;2023-05-15T06:30:13;4.43;;;0.77;;
67558;SDS011;54388;53.536;49.300;2023-05-15T06:32:40;13.65;;;2.13;;
67558;SDS011;54388;53.536;49.300;2023-05-15T06:35:07;10.18;;;1.60;;
67558;SDS011;54388;53.536;49.300;2023-05-15T06:37:34;5.50;;;1.10;;
67558;SDS011;54388;53.536;49.300;2023-05-15T06:40:01;5.15;;;1.40;;
67558;SDS011;54388;53.536;49.300;2023-05-15T06:42:28;3.92;;;0.75;;
67558;SDS011;54388;53.536;49.300;2023-05-15T06:44:55;6.47;;;1.08;;
67558;SDS011;54388;53.536;49.300;2023-05-15T06:47:22;6.13;;;1.00;;
67558;SDS011;54388;53.536;49.300;2023-05-15T06:49:48;6.65;;;1.00;;
67558;SDS011;54388;53.536;49.300;2023-05-15T06:52:15;8.27;;;1.25;;
67558;SDS011;54388;53.536;49.300;2023-05-15T06:54:41;2.05;;;0.70;;
67558;SDS011;54388;53.536;49.300;2023-05-15T06:57:08;3.78;;;0.77;;
67558;SDS011;54388;53.536;49.300;2023-05-15T06:59:34;2.38;;;0.90;;
67558;SDS011;54388;53.536;49.300;2023-05-15T07:02:01;3.92;;;0.60;;
67558;SDS011;54388;53.536;49.300;2023-05-15T07:04:28;2.80;;;0.77;;
67558;SDS011;54388;53.536;49.300;2023-05-15T07:06:55;7.78;;;1.00;;
67558;SDS011;54388;53.536;49.300;2023-05-15T07:09:22;9.02;;;0.80;;
67558;SDS011;54388;53.536;49.300;2023-05-15T07:11:49;6.55;;;1.20;;
67558;SDS011;54388;53.536;49.300;2023-05-15T07:14:16;5.10;;;1.17;;
67558;SDS011;54388;53.536;49.300;2023-05-15T07:16:43;3.50;;;0.75;;
67558;SDS011;54388;53.536;49.300;2023-05-15T07:19:11;8.52;;;1.00;;
67558;SDS011;54388;53.536;49.300;2023-05-15T07:21:38;3.67;;;0.98;;
67558;SDS011;54388;53.536;49.300;2023-05-15T07:24:05;2.45;;;0.70;;
67558;SDS011;54388;53.536;49.300;2023-05-15T07:26:32;6.30;;;0.95;;
67558;SDS011;54388;53.536;49.300;2023-05-15T07:28:58;2.53;;;0.68;;
67558;SDS011;54388;53.536;49.300;2023-05-15T07:31:25;2.13;;;0.82;;
67558;SDS011;54388;53.536;49.300;2023-05-15T07:33:51;7.38;;;1.02;;
67558;SDS011;54388;53.536;49.300;2023-05-15T07:36:18;6.53;;;1.20;;
67558;SDS011;54388;53.536;49.300;2023-05-15T07:38:44;5.07;;;0.95;;
67558;SDS011;54388;53.536;49.300;2023-05-15T07:41:11;8.05;;;1.10;;
67558;SDS011;54388;53.536;49.300;2023-05-15T07:43:37;2.45;;;0.73;;
67558;SDS011;54388;53.536;49.300;2023-05-15T07:46:04;2.88;;;0.90;;
67558;SDS011;54388;53.536;49.300;2023-05-15T07:48:30;3.63;;;0.80;;
67558;SDS011;54388;53.536;49.300;2023-05-15T07:50:57;4.60;;;1.00;;
67558;SDS011;54388;53.536;49.300;2023-05-15T07:53:23;10.25;;;1.65;;
67558;SDS011;54388;53.536;49.300;2023-05-15T07:55:50;6.53;;;0.80;;
67558;SDS011;54388;53.536;49.300;2023-05-15T07:58:17;3.28;;;0.82;;
67558;SDS011;54388;53.536;49.300;2023-05-15T08:00:44;2.05;;;0.70;;
67558;SDS011;54388;53.536;49.300;2023-05-15T08:03:10;2.30;;;0.75;;
67558;SDS011;54388;53.536;49.300;2023-05-15T08:05:36;4.63;;;0.98;;
67558;SDS011;54388;53.536;49.300;2023-05-15T08:08:03;4.57;;;1.10;;
67558;SDS011;54388;53.536;49.300;2023-05-15T08:10:30;4.65;;;1.30;;
67558;SDS011;54388;53.536;49.300;2023-05-15T08:12:56;10.57;;;1.20;;
67558;SDS011;54388;53.536;49.300;2023-05-15T08:15:23;13.95;;;1.60;;
67558;SDS011;54388;53.536;49.300;2023-05-15T08:17:49;3.85;;;0.93;;
67558;SDS011;54388;53.536;49.300;2023-05-15T08:20:16;4.03;;;0.80;;
67558;SDS011;54388;53.536;49.300;2023-05-15T08:22:42;3.72;;;0.85;;
67558;SDS011;54388;53.536;49.300;2023-05-15T08:25:09;0.70;;;0.60;;
67558;SDS011;54388;53.536;49.300;2023-05-15T08:27:36;6.85;;;1.02;;
67558;SDS011;54388;53.536;49.300;2023-05-15T08:30:02;0.90;;;0.55;;
67558;SDS011;54388;53.536;49.300;2023-05-15T08:32:29;3.80;;;0.80;;
67558;SDS011;54388;53.536;49.300;2023-05-15T08:34:56;3.65;;;0.90;;
67558;SDS011;54388;53.536;49.300;2023-05-15T08:37:22;4.55;;;0.90;;
67558;SDS011;54388;53.536;49.300;2023-05-15T08:39:49;5.35;;;0.90;;
67558;SDS011;54388;53.536;49.300;2023-05-15T08:44:45;3.78;;;0.88;;
67558;SDS011;54388;53.536;49.300;2023-05-15T08:47:15;11.02;;;1.40;;
67558;SDS011;54388;53.536;49.300;2023-05-15T08:50:01;5.90;;;1.10;;
67558;SDS011;54388;53.536;49.300;2023-05-15T08:52:40;2.78;;;0.85;;
67558;SDS011;54388;53.536;49.300;2023-05-15T08:55:08;7.78;;;1.27;;
67558;SDS011;54388;53.536;49.300;2023-05-15T08:57:35;2.00;;;0.80;;
67558;SDS011;54388;53.536;49.300;2023-05-15T09:00:03;5.10;;;1.13;;
67558;SDS011;54388;53.536;49.300;2023-05-15T09:02:34;5.22;;;1.15;;
67558;SDS011;54388;53.536;49.300;2023-05-15T09:05:02;8.70;;;1.60;;
67558;SDS011;54388;53.536;49.300;2023-05-15T09:07:29;3.40;;;1.10;;
67558;SDS011;54388;53.536;49.300;2023-05-15T09:09:57;7.03;;;1.23;;
67558;SDS011;54388;53.536;49.300;2023-05-15T09:12:25;5.78;;;1.63;;
67558;SDS011;54388;53.536;49.300;2023-05-15T09:15:06;2.80;;;0.90;;
67558;SDS011;54388;53.536;49.300;2023-05-15T09:17:37;7.90;;;1.48;;
67558;SDS011;54388;53.536;49.300;2023-05-15T09:20:23;2.72;;;1.00;;
67558;SDS011;54388;53.536;49.300;2023-05-15T09:22:58;4.57;;;1.05;;
67558;SDS011;54388;53.536;49.300;2023-05-15T09:27:59;1.90;;;0.93;;
67558;SDS011;54388;53.536;49.300;2023-05-15T09:30:26;7.10;;;1.35;;
67558;SDS011;54388;53.536;49.300;2023-05-15T09:32:53;9.85;;;1.90;;
67558;SDS011;54388;53.536;49.300;2023-05-15T09:35:35;7.03;;;1.23;;
67558;SDS011;54388;53.536;49.300;2023-05-15T09:38:07;2.83;;;1.10;;
67558;SDS011;54388;53.536;49.300;2023-05-15T09:40:35;8.45;;;1.30;;
67558;SDS011;54388;53.536;49.300;2023-05-15T09:43:02;6.47;;;1.60;;
67558;SDS011;54388;53.536;49.300;2023-05-15T09:45:29;4.53;;;1.35;;
67558;SDS011;54388;53.536;49.300;2023-05-15T09:47:58;6.80;;;1.27;;
67558;SDS011;54388;53.536;49.300;2023-05-15T09:50:33;6.72;;;1.08;;
67558;SDS011;54388;53.536;49.300;2023-05-15T09:53:02;7.70;;;1.65;;
67558;SDS011;54388;53.536;49.300;2023-05-15T09:55:35;1.90;;;1.27;;
67558;SDS011;54388;53.536;49.300;2023-05-15T09:58:12;1.63;;;1.00;;
67558;SDS011;54388;53.536;49.300;2023-05-15T10:00:40;5.55;;;1.20;;
67558;SDS011;54388;53.536;49.300;2023-05-15T10:03:08;5.28;;;1.52;;
67558;SDS011;54388;53.536;49.300;2023-05-15T10:05:35;5.35;;;1.35;;
67558;SDS011;54388;53.536;49.300;2023-05-15T10:08:03;6.75;;;1.30;;
67558;SDS011;54388;53.536;49.300;2023-05-15T10:10:30;2.97;;;1.00;;
67558;SDS011;54388;53.536;49.300;2023-05-15T10:12:58;8.18;;;1.90;;
67558;SDS011;54388;53.536;49.300;2023-05-15T10:15:29;9.73;;;1.50;;
67558;SDS011;54388;53.536;49.300;2023-05-15T10:17:56;3.80;;;1.10;;
67558;SDS011;54388;53.536;49.300;2023-05-15T10:20:24;6.13;;;1.33;;
67558;SDS011;54388;53.536;49.300;2023-05-15T10:22:52;10.68;;;1.23;;
67558;SDS011;54388;53.536;49.300;2023-05-15T10:27:58;13.25;;;1.80;;
67558;SDS011;54388;53.536;49.300;2023-05-15T10:30:26;2.67;;;1.00;;
67558;SDS011;54388;53.536;49.300;2023-05-15T10:32:54;4.53;;;1.17;;
67558;SDS011;54388;53.536;49.300;2023-05-15T10:35:21;2.75;;;0.90;;
67558;SDS011;54388;53.536;49.300;2023-05-15T10:37:48;4.03;;;1.05;;
67558;SDS011;54388;53.536;49.300;2023-05-15T10:40:15;3.75;;;1.45;;
67558;SDS011;54388;53.536;49.300;2023-05-15T10:42:43;8.25;;;1.50;;
67558;SDS011;54388;53.536;49.300;2023-05-15T10:45:10;5.15;;;1.60;;
67558;SDS011;54388;53.536;49.300;2023-05-15T10:47:38;5.40;;;1.40;;
67558;SDS011;54388;53.536;49.300;2023-05-15T10:50:06;4.85;;;1.50;;
67558;SDS011;54388;53.536;49.300;2023-05-15T10:52:37;4.60;;;1.88;;
67558;SDS011;54388;53.536;49.300;2023-05-15T10:55:07;7.95;;;2.00;;
67558;SDS011;54388;53.536;49.300;2023-05-15T10:57:38;5.82;;;1.45;;
67558;SDS011;54388;53.536;49.300;2023-05-15T11:00:22;8.23;;;2.45;;
67558;SDS011;54388;53.536;49.300;2023-05-15T11:02:49;3.47;;;1.30;;
67558;SDS011;54388;53.536;49.300;2023-05-15T11:05:21;5.60;;;1.27;;
67558;SDS011;54388;53.536;49.300;2023-05-15T11:10:50;4.85;;;1.63;;
67558;SDS011;54388;53.536;49.300;2023-05-15T11:13:18;5.75;;;1.17;;
67558;SDS011;54388;53.536;49.300;2023-05-15T11:15:46;8.57;;;1.88;;
67558;SDS011;54388;53.536;49.300;2023-05-15T11:18:13;2.28;;;1.20;;
67558;SDS011;54388;53.536;49.300;2023-05-15T11:20:40;7.63;;;1.50;;
67558;SDS011;54388;53.536;49.300;2023-05-15T11:23:27;4.95;;;1.40;;
67558;SDS011;54388;53.536;49.300;2023-05-15T11:25:59;6.70;;;1.70;;
67558;SDS011;54388;53.536;49.300;2023-05-15T11:28:28;5.82;;;1.70;;
67558;SDS011;54388;53.536;49.300;2023-05-15T11:30:58;7.35;;;1.63;;
67558;SDS011;54388;53.536;49.300;2023-05-15T11:33:27;3.25;;;1.25;;
67558;SDS011;54388;53.536;49.300;2023-05-15T11:35:57;2.38;;;1.10;;
67558;SDS011;54388;53.536;49.300;2023-05-15T11:38:25;1.50;;;1.20;;
67558;SDS011;54388;53.536;49.300;2023-05-15T11:40:55;6.80;;;1.33;;
67558;SDS011;54388;53.536;49.300;2023-05-15T11:43:33;8.90;;;1.60;;
67558;SDS011;54388;53.536;49.300;2023-05-15T11:46:07;7.70;;;1.70;;
67558;SDS011;54388;53.536;49.300;2023-05-15T11:48:36;10.25;;;1.50;;
67558;SDS011;54388;53.536;49.300;2023-05-15T11:51:12;4.15;;;1.73;;
67558;SDS011;54388;53.536;49.300;2023-05-15T11:56:18;10.77;;;2.28;;
67558;SDS011;54388;53.536;49.300;2023-05-15T11:58:48;5.03;;;2.10;;
67558;SDS011;54388;53.536;49.300;2023-05-15T12:01:19;6.10;;;1.30;;
67558;SDS011;54388;53.536;49.300;2023-05-15T12:03:46;7.30;;;1.30;;
67558;SDS011;54388;53.536;49.300;2023-05-15T12:06:16;8.73;;;2.00;;
67558;SDS011;54388;53.536;49.300;2023-05-15T12:08:43;7.10;;;1.48;;
67558;SDS011;54388;53.536;49.300;2023-05-15T12:11:14;3.10;;;1.30;;
67558;SDS011;54388;53.536;49.300;2023-05-15T12:13:41;2.95;;;1.30;;
67558;SDS011;54388;53.536;49.300;2023-05-15T12:16:07;9.75;;;1.40;;
67558;SDS011;54388;53.536;49.300;2023-05-15T12:18:34;2.72;;;1.50;;
67558;SDS011;54388;53.536;49.300;2023-05-15T12:21:00;3.60;;;1.52;;
67558;SDS011;54388;53.536;49.300;2023-05-15T12:23:29;3.45;;;1.10;;
67558;SDS011;54388;53.536;49.300;2023-05-15T12:26:02;4.78;;;1.35;;
67558;SDS011;54388;53.536;49.300;2023-05-15T12:28:31;3.05;;;1.05;;
67558;SDS011;54388;53.536;49.300;2023-05-15T12:31:00;5.50;;;1.20;;
67558;SDS011;54388;53.536;49.300;2023-05-15T12:33:26;4.57;;;1.30;;
67558;SDS011;54388;53.536;49.300;2023-05-15T12:35:53;15.48;;;3.55;;
67558;SDS011;54388;53.536;49.300;2023-05-15T12:38:22;8.80;;;3.22;;
67558;SDS011;54388;53.536;49.300;2023-05-15T12:40:52;4.00;;;1.30;;
67558;SDS011;54388;53.536;49.300;2023-05-15T12:43:19;9.50;;;3.75;;
67558;SDS011;54388;53.536;49.300;2023-05-15T12:45:50;6.82;;;2.00;;
67558;SDS011;54388;53.536;49.300;2023-05-15T12:48:18;3.40;;;1.20;;
67558;SDS011;54388;53.536;49.300;2023-05-15T12:50:44;3.83;;;1.13;;
67558;SDS011;54388;53.536;49.300;2023-05-15T12:53:12;8.32;;;1.67;;
67558;SDS011;54388;53.536;49.300;2023-05-15T12:55:40;6.85;;;1.73;;
67558;SDS011;54388;53.536;49.300;2023-05-15T12:58:10;4.07;;;1.67;;
67558;SDS011;54388;53.536;49.300;2023-05-15T13:00:39;5.47;;;1.63;;
67558;SDS011;54388;53.536;49.300;2023-05-15T13:03:10;12.80;;;1.77;;
67558;SDS011;54388;53.536;49.300;2023-05-15T13:05:38;5.65;;;1.50;;
67558;SDS011;54388;53.536;49.300;2023-05-15T13:08:08;2.28;;;1.05;;
67558;SDS011;54388;53.536;49.300;2023-05-15T13:10:39;5.50;;;1.20;;
67558;SDS011;54388;53.536;49.300;2023-05-15T13:13:05;4.50;;;1.35;;
67558;SDS011;54388;53.536;49.300;2023-05-15T13:15:38;7.53;;;1.55;;
67558;SDS011;54388;53.536;49.300;2023-05-15T13:18:08;3.83;;;1.40;;
67558;SDS011;54388;53.536;49.300;2023-05-15T13:20:42;8.23;;;1.52;;
67558;SDS011;54388;53.536;49.300;2023-05-15T13:23:11;2.58;;;1.00;;
67558;SDS011;54388;53.536;49.300;2023-05-15T13:25:47;3.53;;;1.27;;
67558;SDS011;54388;53.536;49.300;2023-05-15T13:28:13;5.57;;;1.52;;
67558;SDS011;54388;53.536;49.300;2023-05-15T13:30:40;4.22;;;1.00;;
67558;SDS011;54388;53.536;49.300;2023-05-15T13:33:07;4.03;;;1.20;;
67558;SDS011;54388;53.536;49.300;2023-05-15T13:35:36;4.20;;;0.95;;
67558;SDS011;54388;53.536;49.300;2023-05-15T13:38:03;4.43;;;1.38;;
67558;SDS011;54388;53.536;49.300;2023-05-15T13:40:30;5.03;;;1.60;;
67558;SDS011;54388;53.536;49.300;2023-05-15T13:43:02;7.07;;;1.60;;
67558;SDS011;54388;53.536;49.300;2023-05-15T13:45:31;6.68;;;1.40;;
67558;SDS011;54388;53.536;49.300;2023-05-15T13:47:57;6.25;;;1.40;;
67558;SDS011;54388;53.536;49.300;2023-05-15T13:50:24;2.33;;;1.25;;
67558;SDS011;54388;53.536;49.300;2023-05-15T13:52:50;4.85;;;1.50;;
67558;SDS011;54388;53.536;49.300;2023-05-15T13:55:18;5.20;;;1.50;;
67558;SDS011;54388;53.536;49.300;2023-05-15T13:57:45;3.92;;;1.00;;
67558;SDS011;54388;53.536;49.300;2023-05-15T14:00:12;9.70;;;1.52;;
67558;SDS011;54388;53.536;49.300;2023-05-15T14:02:40;4.75;;;1.55;;
67558;SDS011;54388;53.536;49.300;2023-05-15T14:05:08;4.43;;;1.27;;
67558;SDS011;54388;53.536;49.300;2023-05-15T14:07:36;4.50;;;1.35;;
67558;SDS011;54388;53.536;49.300;2023-05-15T14:10:03;6.50;;;1.40;;
67558;SDS011;54388;53.536;49.300;2023-05-15T14:12:30;4.22;;;1.50;;
67558;SDS011;54388;53.536;49.300;2023-05-15T14:14:57;8.27;;;2.20;;
67558;SDS011;54388;53.536;49.300;2023-05-15T14:17:24;3.97;;;1.50;;
67558;SDS011;54388;53.536;49.300;2023-05-15T14:20:02;8.70;;;1.90;;
67558;SDS011;54388;53.536;49.300;2023-05-15T14:22:29;10.73;;;1.95;;
67558;SDS011;54388;53.536;49.300;2023-05-15T14:25:02;8.32;;;1.75;;
67558;SDS011;54388;53.536;49.300;2023-05-15T14:27:34;3.88;;;1.40;;
67558;SDS011;54388;53.536;49.300;2023-05-15T14:30:06;9.40;;;1.60;;
67558;SDS011;54388;53.536;49.300;2023-05-15T14:32:38;7.07;;;1.60;;
67558;SDS011;54388;53.536;49.300;2023-05-15T14:35:11;11.25;;;1.67;;
67558;SDS011;54388;53.536;49.300;2023-05-15T14:37:43;4.70;;;1.40;;
67558;SDS011;54388;53.536;49.300;2023-05-15T14:40:15;7.80;;;1.50;;
67558;SDS011;54388;53.536;49.300;2023-05-15T14:42:46;6.50;;;1.80;;
67558;SDS011;54388;53.536;49.300;2023-05-15T14:45:18;8.82;;;1.20;;
67558;SDS011;54388;53.536;49.300;2023-05-15T14:47:50;10.27;;;1.40;;
67558;SDS011;54388;53.536;49.300;2023-05-15T14:50:22;5.70;;;1.52;;
67558;SDS011;54388;53.536;49.300;2023-05-15T14:52:54;3.78;;;1.40;;
67558;SDS011;54388;53.536;49.300;2023-05-15T14:55:26;10.93;;;1.85;;
67558;SDS011;54388;53.536;49.300;2023-05-15T14:57:57;5.15;;;1.70;;
67558;SDS011;54388;53.536;49.300;2023-05-15T15:00:29;8.18;;;1.55;;
67558;SDS011;54388;53.536;49.300;2023-05-15T15:03:02;7.50;;;1.73;;
67558;SDS011;54388;53.536;49.300;2023-05-15T15:05:34;7.70;;;2.00;;
67558;SDS011;54388;53.536;49.300;2023-05-15T15:08:07;7.28;;;1.70;;
67558;SDS011;54388;53.536;49.300;2023-05-15T15:10:40;7.05;;;2.00;;
67558;SDS011;54388;53.536;49.300;2023-05-15T15:13:13;7.78;;;1.58;;
67558;SDS011;54388;53.536;49.300;2023-05-15T15:15:46;5.78;;;1.60;;